sensor_id;sensor_type;location;lat;lon;timestamp;pressure;altitude;pressure_sealevel;temperature;humidity
74403;BME280;62837;51.082;13.744;2023-03-03T00:00:15;100955.88;;;1.41;74.43
74403;BME280;62837;51.082;13.744;2023-03-03T00:02:46;100957.83;;;1.43;74.39
74403;BME280;62837;51.082;13.744;2023-03-03T00:05:17;100960.45;;;1.46;74.56
74403;BME280;62837;51.082;13.744;2023-03-03T00:07:48;100958.50;;;1.49;74.25
74403;BME280;62837;51.082;13.744;2023-03-03T00:10:19;100956.42;;;1.50;74.33
74403;BME280;62837;51.082;13.744;2023-03-03T00:12:50;100955.38;;;1.49;74.02
74403;BME280;62837;51.082;13.744;2023-03-03T00:15:22;100955.80;;;1.49;74.30
74403;BME280;62837;51.082;13.744;2023-03-03T00:17:53;100958.17;;;1.49;74.30
74403;BME280;62837;51.082;13.744;2023-03-03T00:20:32;100959.22;;;1.49;74.27
74403;BME280;62837;51.082;13.744;2023-03-03T00:23:15;100958.51;;;1.50;74.12
74403;BME280;62837;51.082;13.744;2023-03-03T00:25:47;100962.67;;;1.49;74.36
74403;BME280;62837;51.082;13.744;2023-03-03T00:28:23;100966.70;;;1.42;74.52
74403;BME280;62837;51.082;13.744;2023-03-03T00:30:56;100967.89;;;1.39;74.68
74403;BME280;62837;51.082;13.744;2023-03-03T00:33:30;100970.23;;;1.31;74.90
74403;BME280;62837;51.082;13.744;2023-03-03T00:36:21;100972.42;;;1.25;74.95
74403;BME280;62837;51.082;13.744;2023-03-03T00:38:52;100977.23;;;1.20;75.12
74403;BME280;62837;51.082;13.744;2023-03-03T00:41:25;100975.16;;;1.13;75.26
74403;BME280;62837;51.082;13.744;2023-03-03T00:43:58;100970.94;;;1.12;75.23
74403;BME280;62837;51.082;13.744;2023-03-03T00:46:30;100967.31;;;1.15;75.41
74403;BME280;62837;51.082;13.744;2023-03-03T00:49:02;100972.38;;;1.16;75.38
74403;BME280;62837;51.082;13.744;2023-03-03T00:51:46;100976.20;;;1.13;75.38
74403;BME280;62837;51.082;13.744;2023-03-03T00:54:17;100979.45;;;1.07;75.58
74403;BME280;62837;51.082;13.744;2023-03-03T00:56:47;100974.90;;;1.03;75.74
74403;BME280;62837;51.082;13.744;2023-03-03T00:59:19;100976.13;;;0.99;76.02
74403;BME280;62837;51.082;13.744;2023-03-03T01:01:50;100974.05;;;0.94;76.10
74403;BME280;62837;51.082;13.744;2023-03-03T01:04:21;100977.52;;;0.95;76.05
74403;BME280;62837;51.082;13.744;2023-03-03T01:06:51;100974.25;;;1.01;76.12
74403;BME280;62837;51.082;13.744;2023-03-03T01:09:22;100976.35;;;1.07;76.16
74403;BME280;62837;51.082;13.744;2023-03-03T01:11:53;100975.08;;;1.06;76.15
74403;BME280;62837;51.082;13.744;2023-03-03T01:14:24;100977.17;;;1.04;76.44
74403;BME280;62837;51.082;13.744;2023-03-03T01:16:56;100983.23;;;1.00;76.47
74403;BME280;62837;51.082;13.744;2023-03-03T01:19:27;100986.29;;;0.98;76.80
74403;BME280;62837;51.082;13.744;2023-03-03T01:21:57;100987.74;;;1.01;76.66
74403;BME280;62837;51.082;13.744;2023-03-03T01:24:28;100980.98;;;1.02;76.49
74403;BME280;62837;51.082;13.744;2023-03-03T01:26:59;100983.88;;;1.11;76.48
74403;BME280;62837;51.082;13.744;2023-03-03T01:29:30;100984.35;;;1.14;76.29
74403;BME280;62837;51.082;13.744;2023-03-03T01:32:00;100982.73;;;1.19;76.02
74403;BME280;62837;51.082;13.744;2023-03-03T01:34:31;100978.64;;;1.21;75.91
74403;BME280;62837;51.082;13.744;2023-03-03T01:37:03;100982.42;;;1.24;75.70
74403;BME280;62837;51.082;13.744;2023-03-03T01:39:33;100977.87;;;1.26;75.74
74403;BME280;62837;51.082;13.744;2023-03-03T01:42:04;100980.73;;;1.28;75.51
74403;BME280;62837;51.082;13.744;2023-03-03T01:44:36;100974.77;;;1.25;75.60
74403;BME280;62837;51.082;13.744;2023-03-03T01:47:08;100978.17;;;1.26;75.61
74403;BME280;62837;51.082;13.744;2023-03-03T01:49:44;100980.05;;;1.24;75.40
74403;BME280;62837;51.082;13.744;2023-03-03T01:52:23;100976.32;;;1.21;75.39
74403;BME280;62837;51.082;13.744;2023-03-03T01:54:58;100968.52;;;1.21;75.32
74403;BME280;62837;51.082;13.744;2023-03-03T01:57:34;100963.64;;;1.20;75.77
74403;BME280;62837;51.082;13.744;2023-03-03T02:00:08;100962.63;;;1.18;75.60
74403;BME280;62837;51.082;13.744;2023-03-03T02:02:44;100965.73;;;1.15;75.37
74403;BME280;62837;51.082;13.744;2023-03-03T02:05:17;100962.35;;;1.14;75.41
74403;BME280;62837;51.082;13.744;2023-03-03T02:07:48;100963.50;;;1.11;75.75
74403;BME280;62837;51.082;13.744;2023-03-03T02:10:20;100964.13;;;1.01;76.05
74403;BME280;62837;51.082;13.744;2023-03-03T02:12:53;100966.16;;;0.93;76.14
74403;BME280;62837;51.082;13.744;2023-03-03T02:15:25;100966.83;;;0.86;76.43
74403;BME280;62837;51.082;13.744;2023-03-03T02:17:59;100967.67;;;0.87;76.44
74403;BME280;62837;51.082;13.744;2023-03-03T02:20:39;100965.13;;;0.87;76.28
74403;BME280;62837;51.082;13.744;2023-03-03T02:23:19;100970.55;;;0.90;76.34
74403;BME280;62837;51.082;13.744;2023-03-03T02:26:08;100971.65;;;0.90;76.45
74403;BME280;62837;51.082;13.744;2023-03-03T02:28:40;100972.70;;;0.93;76.40
74403;BME280;62837;51.082;13.744;2023-03-03T02:31:14;100969.71;;;0.94;76.22
74403;BME280;62837;51.082;13.744;2023-03-03T02:33:47;100964.88;;;0.93;76.08
74403;BME280;62837;51.082;13.744;2023-03-03T02:36:20;100963.49;;;0.88;76.34
74403;BME280;62837;51.082;13.744;2023-03-03T02:38:54;100964.36;;;0.85;76.44
74403;BME280;62837;51.082;13.744;2023-03-03T02:41:32;100965.15;;;0.80;76.59
74403;BME280;62837;51.082;13.744;2023-03-03T02:44:07;100966.45;;;0.80;76.42
74403;BME280;62837;51.082;13.744;2023-03-03T02:46:40;100969.54;;;0.79;76.29
74403;BME280;62837;51.082;13.744;2023-03-03T02:49:13;100966.36;;;0.76;76.85
74403;BME280;62837;51.082;13.744;2023-03-03T02:51:44;100967.23;;;0.74;76.79
74403;BME280;62837;51.082;13.744;2023-03-03T02:54:16;100962.61;;;0.72;76.71
74403;BME280;62837;51.082;13.744;2023-03-03T02:56:47;100964.98;;;0.66;77.02
74403;BME280;62837;51.082;13.744;2023-03-03T02:59:18;100966.94;;;0.64;77.02
74403;BME280;62837;51.082;13.744;2023-03-03T03:01:50;100966.60;;;0.66;77.08
74403;BME280;62837;51.082;13.744;2023-03-03T03:04:23;100980.14;;;0.68;76.94
74403;BME280;62837;51.082;13.744;2023-03-03T03:06:55;100977.54;;;0.70;76.88
74403;BME280;62837;51.082;13.744;2023-03-03T03:09:27;100975.05;;;0.75;77.25
74403;BME280;62837;51.082;13.744;2023-03-03T03:11:58;100979.58;;;0.70;77.30
74403;BME280;62837;51.082;13.744;2023-03-03T03:14:33;100979.58;;;0.62;76.92
74403;BME280;62837;51.082;13.744;2023-03-03T03:17:03;100978.14;;;0.53;77.25
74403;BME280;62837;51.082;13.744;2023-03-03T03:19:34;100984.38;;;0.46;77.75
74403;BME280;62837;51.082;13.744;2023-03-03T03:22:06;100987.52;;;0.41;77.80
74403;BME280;62837;51.082;13.744;2023-03-03T03:24:37;100993.00;;;0.40;77.85
74403;BME280;62837;51.082;13.744;2023-03-03T03:27:09;100990.66;;;0.44;77.68
74403;BME280;62837;51.082;13.744;2023-03-03T03:29:40;100993.69;;;0.39;77.97
74403;BME280;62837;51.082;13.744;2023-03-03T03:32:11;100990.09;;;0.36;77.93
74403;BME280;62837;51.082;13.744;2023-03-03T03:34:42;100985.89;;;0.32;77.99
74403;BME280;62837;51.082;13.744;2023-03-03T03:37:13;100988.21;;;0.27;78.04
74403;BME280;62837;51.082;13.744;2023-03-03T03:39:46;100980.25;;;0.24;77.99
74403;BME280;62837;51.082;13.744;2023-03-03T03:42:18;100979.50;;;0.20;78.25
74403;BME280;62837;51.082;13.744;2023-03-03T03:44:49;100972.23;;;0.19;78.22
74403;BME280;62837;51.082;13.744;2023-03-03T03:47:20;100975.42;;;0.18;78.43
74403;BME280;62837;51.082;13.744;2023-03-03T03:49:51;100977.75;;;0.16;78.43
74403;BME280;62837;51.082;13.744;2023-03-03T03:52:22;100985.87;;;0.17;78.53
74403;BME280;62837;51.082;13.744;2023-03-03T03:54:53;100991.48;;;0.15;78.47
74403;BME280;62837;51.082;13.744;2023-03-03T03:57:24;100992.09;;;0.17;78.50
74403;BME280;62837;51.082;13.744;2023-03-03T03:59:55;100999.42;;;0.18;78.53
74403;BME280;62837;51.082;13.744;2023-03-03T04:02:26;100993.16;;;0.24;78.50
74403;BME280;62837;51.082;13.744;2023-03-03T04:04:58;100996.95;;;0.31;78.59
74403;BME280;62837;51.082;13.744;2023-03-03T04:07:28;101003.06;;;0.36;78.23
74403;BME280;62837;51.082;13.744;2023-03-03T04:10:00;100994.75;;;0.38;78.42
74403;BME280;62837;51.082;13.744;2023-03-03T04:12:31;101000.79;;;0.34;78.31
74403;BME280;62837;51.082;13.744;2023-03-03T04:15:11;101014.86;;;0.31;78.58
74403;BME280;62837;51.082;13.744;2023-03-03T04:17:42;101011.70;;;0.36;78.29
74403;BME280;62837;51.082;13.744;2023-03-03T04:20:15;101008.34;;;0.42;78.25
74403;BME280;62837;51.082;13.744;2023-03-03T04:22:47;101003.78;;;0.49;77.94
74403;BME280;62837;51.082;13.744;2023-03-03T04:25:18;101002.42;;;0.49;77.61
74403;BME280;62837;51.082;13.744;2023-03-03T04:27:49;101012.02;;;0.43;77.90
74403;BME280;62837;51.082;13.744;2023-03-03T04:30:21;101014.69;;;0.40;78.01
74403;BME280;62837;51.082;13.744;2023-03-03T04:32:54;101021.55;;;0.45;77.91
74403;BME280;62837;51.082;13.744;2023-03-03T04:35:25;101013.91;;;0.50;77.80
74403;BME280;62837;51.082;13.744;2023-03-03T04:37:59;101010.66;;;0.47;77.76
74403;BME280;62837;51.082;13.744;2023-03-03T04:40:30;101019.20;;;0.41;77.86
74403;BME280;62837;51.082;13.744;2023-03-03T04:43:01;101023.30;;;0.42;77.84
74403;BME280;62837;51.082;13.744;2023-03-03T04:45:32;101022.67;;;0.40;77.59
74403;BME280;62837;51.082;13.744;2023-03-03T04:48:04;101027.80;;;0.47;77.57
74403;BME280;62837;51.082;13.744;2023-03-03T04:50:35;101026.33;;;0.50;77.63
74403;BME280;62837;51.082;13.744;2023-03-03T04:53:06;101021.63;;;0.55;77.80
74403;BME280;62837;51.082;13.744;2023-03-03T04:55:39;101024.05;;;0.56;77.55
74403;BME280;62837;51.082;13.744;2023-03-03T04:58:10;101018.96;;;0.59;77.54
74403;BME280;62837;51.082;13.744;2023-03-03T05:00:41;101022.66;;;0.61;77.09
74403;BME280;62837;51.082;13.744;2023-03-03T05:03:13;101024.96;;;0.62;77.38
74403;BME280;62837;51.082;13.744;2023-03-03T05:05:44;101028.14;;;0.62;77.44
74403;BME280;62837;51.082;13.744;2023-03-03T05:08:15;101029.13;;;0.62;77.41
74403;BME280;62837;51.082;13.744;2023-03-03T05:10:46;101031.52;;;0.64;77.17
74403;BME280;62837;51.082;13.744;2023-03-03T05:13:20;101033.93;;;0.68;77.01
74403;BME280;62837;51.082;13.744;2023-03-03T05:15:52;101028.39;;;0.71;77.12
74403;BME280;62837;51.082;13.744;2023-03-03T05:18:23;101028.90;;;0.74;77.17
74403;BME280;62837;51.082;13.744;2023-03-03T05:20:54;101022.77;;;0.77;77.01
74403;BME280;62837;51.082;13.744;2023-03-03T05:23:25;101011.60;;;0.78;77.31
74403;BME280;62837;51.082;13.744;2023-03-03T05:25:56;101006.90;;;0.75;77.19
74403;BME280;62837;51.082;13.744;2023-03-03T05:28:26;101016.25;;;0.70;77.06
74403;BME280;62837;51.082;13.744;2023-03-03T05:30:57;101023.52;;;0.65;77.00
74403;BME280;62837;51.082;13.744;2023-03-03T05:33:28;101028.31;;;0.64;77.09
74403;BME280;62837;51.082;13.744;2023-03-03T05:35:58;101022.83;;;0.66;76.98
74403;BME280;62837;51.082;13.744;2023-03-03T05:38:29;101020.10;;;0.66;77.26
74403;BME280;62837;51.082;13.744;2023-03-03T05:41:00;101023.65;;;0.67;77.27
74403;BME280;62837;51.082;13.744;2023-03-03T05:43:30;101029.19;;;0.63;77.25
74403;BME280;62837;51.082;13.744;2023-03-03T05:46:01;101032.23;;;0.61;77.49
74403;BME280;62837;51.082;13.744;2023-03-03T05:48:32;101038.93;;;0.62;77.47
74403;BME280;62837;51.082;13.744;2023-03-03T05:51:03;101037.78;;;0.66;77.41
74403;BME280;62837;51.082;13.744;2023-03-03T05:53:34;101035.17;;;0.64;77.65
74403;BME280;62837;51.082;13.744;2023-03-03T05:56:06;101028.79;;;0.65;77.55
74403;BME280;62837;51.082;13.744;2023-03-03T05:58:37;101028.45;;;0.67;77.65
74403;BME280;62837;51.082;13.744;2023-03-03T06:01:07;101029.40;;;0.67;77.87
74403;BME280;62837;51.082;13.744;2023-03-03T06:03:38;101034.06;;;0.69;77.65
74403;BME280;62837;51.082;13.744;2023-03-03T06:06:09;101028.84;;;0.68;77.73
74403;BME280;62837;51.082;13.744;2023-03-03T06:08:40;101026.58;;;0.63;77.71
74403;BME280;62837;51.082;13.744;2023-03-03T06:11:11;101023.48;;;0.60;78.08
74403;BME280;62837;51.082;13.744;2023-03-03T06:13:42;101016.20;;;0.60;78.27
74403;BME280;62837;51.082;13.744;2023-03-03T06:16:13;101023.63;;;0.55;78.46
74403;BME280;62837;51.082;13.744;2023-03-03T06:18:44;101022.85;;;0.55;79.14
74403;BME280;62837;51.082;13.744;2023-03-03T06:21:15;101029.01;;;0.61;79.21
74403;BME280;62837;51.082;13.744;2023-03-03T06:23:45;101021.60;;;0.69;79.14
74403;BME280;62837;51.082;13.744;2023-03-03T06:26:16;101029.46;;;0.72;79.21
74403;BME280;62837;51.082;13.744;2023-03-03T06:28:47;101031.46;;;0.71;79.08
74403;BME280;62837;51.082;13.744;2023-03-03T06:31:18;101028.38;;;0.71;78.90
74403;BME280;62837;51.082;13.744;2023-03-03T06:33:49;101034.40;;;0.72;79.25
74403;BME280;62837;51.082;13.744;2023-03-03T06:36:20;101043.64;;;0.71;79.32
74403;BME280;62837;51.082;13.744;2023-03-03T06:38:51;101054.04;;;0.75;79.97
74403;BME280;62837;51.082;13.744;2023-03-03T06:41:22;101063.54;;;0.86;80.97
74403;BME280;62837;51.082;13.744;2023-03-03T06:43:53;101066.96;;;0.98;81.20
74403;BME280;62837;51.082;13.744;2023-03-03T06:46:24;101067.06;;;1.08;80.17
74403;BME280;62837;51.082;13.744;2023-03-03T06:48:55;101066.39;;;1.12;79.52
74403;BME280;62837;51.082;13.744;2023-03-03T06:51:31;101061.51;;;1.14;79.29
74403;BME280;62837;51.082;13.744;2023-03-03T06:54:11;101057.10;;;1.80;89.53
74403;BME280;62837;51.082;13.744;2023-03-03T06:56:54;101055.25;;;2.91;88.99
74403;BME280;62837;51.082;13.744;2023-03-03T06:59:35;101053.19;;;3.07;80.76
74403;BME280;62837;51.082;13.744;2023-03-03T07:02:14;101058.08;;;2.94;78.18
74403;BME280;62837;51.082;13.744;2023-03-03T07:04:46;101065.26;;;2.78;76.97
74403;BME280;62837;51.082;13.744;2023-03-03T07:07:19;101073.54;;;2.64;76.81
74403;BME280;62837;51.082;13.744;2023-03-03T07:09:52;101073.27;;;2.50;76.34
74403;BME280;62837;51.082;13.744;2023-03-03T07:12:24;101071.64;;;2.37;76.19
74403;BME280;62837;51.082;13.744;2023-03-03T07:15:11;101069.98;;;2.24;75.58
74403;BME280;62837;51.082;13.744;2023-03-03T07:17:45;101068.59;;;2.13;75.84
74403;BME280;62837;51.082;13.744;2023-03-03T07:20:23;101067.27;;;2.03;75.42
74403;BME280;62837;51.082;13.744;2023-03-03T07:22:54;101069.73;;;1.94;75.60
74403;BME280;62837;51.082;13.744;2023-03-03T07:25:30;101074.42;;;1.79;75.43
74403;BME280;62837;51.082;13.744;2023-03-03T07:28:13;101078.23;;;1.64;75.67
74403;BME280;62837;51.082;13.744;2023-03-03T07:30:47;101083.33;;;1.56;76.16
74403;BME280;62837;51.082;13.744;2023-03-03T07:33:26;101084.36;;;1.54;75.99
74403;BME280;62837;51.082;13.744;2023-03-03T07:35:58;101089.46;;;1.52;75.99
74403;BME280;62837;51.082;13.744;2023-03-03T07:38:33;101096.58;;;1.48;75.99
74403;BME280;62837;51.082;13.744;2023-03-03T07:41:08;101104.76;;;1.45;76.23
74403;BME280;62837;51.082;13.744;2023-03-03T07:43:46;101109.68;;;1.45;76.43
74403;BME280;62837;51.082;13.744;2023-03-03T07:46:25;101107.71;;;1.45;76.24
74403;BME280;62837;51.082;13.744;2023-03-03T07:48:57;101109.39;;;1.44;76.08
74403;BME280;62837;51.082;13.744;2023-03-03T07:51:35;101110.58;;;1.43;76.11
74403;BME280;62837;51.082;13.744;2023-03-03T07:54:28;101106.14;;;1.65;81.79
74403;BME280;62837;51.082;13.744;2023-03-03T07:57:10;101107.02;;;1.69;77.74
74403;BME280;62837;51.082;13.744;2023-03-03T07:59:46;101101.41;;;1.64;77.17
74403;BME280;62837;51.082;13.744;2023-03-03T08:02:38;101101.08;;;1.59;76.36
74403;BME280;62837;51.082;13.744;2023-03-03T08:05:27;101102.08;;;1.54;76.34
74403;BME280;62837;51.082;13.744;2023-03-03T08:08:28;101105.05;;;1.52;76.17
74403;BME280;62837;51.082;13.744;2023-03-03T08:11:00;101104.95;;;1.51;76.31
74403;BME280;62837;51.082;13.744;2023-03-03T08:13:37;101103.80;;;1.49;76.59
74403;BME280;62837;51.082;13.744;2023-03-03T08:16:27;101107.60;;;1.47;76.18
74403;BME280;62837;51.082;13.744;2023-03-03T08:19:01;101103.30;;;1.47;76.19
74403;BME280;62837;51.082;13.744;2023-03-03T08:21:34;101099.63;;;1.47;76.01
74403;BME280;62837;51.082;13.744;2023-03-03T08:24:06;101101.06;;;1.43;76.13
74403;BME280;62837;51.082;13.744;2023-03-03T08:26:38;101098.48;;;1.42;76.18
74403;BME280;62837;51.082;13.744;2023-03-03T08:29:08;101100.83;;;1.42;76.30
74403;BME280;62837;51.082;13.744;2023-03-03T08:31:40;101109.63;;;1.42;76.41
74403;BME280;62837;51.082;13.744;2023-03-03T08:34:11;101108.27;;;1.43;76.31
74403;BME280;62837;51.082;13.744;2023-03-03T08:36:41;101109.50;;;1.45;76.04
74403;BME280;62837;51.082;13.744;2023-03-03T08:39:12;101110.98;;;1.43;76.09
74403;BME280;62837;51.082;13.744;2023-03-03T08:41:43;101111.08;;;1.36;76.28
74403;BME280;62837;51.082;13.744;2023-03-03T08:44:14;101112.04;;;1.29;76.45
74403;BME280;62837;51.082;13.744;2023-03-03T08:46:45;101118.63;;;1.25;77.15
74403;BME280;62837;51.082;13.744;2023-03-03T08:49:16;101123.30;;;1.27;77.25
74403;BME280;62837;51.082;13.744;2023-03-03T08:51:47;101128.44;;;1.31;77.13
74403;BME280;62837;51.082;13.744;2023-03-03T08:54:17;101128.83;;;1.34;76.92
74403;BME280;62837;51.082;13.744;2023-03-03T08:56:48;101122.26;;;1.39;76.77
74403;BME280;62837;51.082;13.744;2023-03-03T08:59:19;101121.82;;;1.43;76.84
74403;BME280;62837;51.082;13.744;2023-03-03T09:01:50;101119.83;;;1.43;76.55
74403;BME280;62837;51.082;13.744;2023-03-03T09:04:21;101117.15;;;1.43;76.75
74403;BME280;62837;51.082;13.744;2023-03-03T09:06:52;101117.26;;;1.45;76.74
74403;BME280;62837;51.082;13.744;2023-03-03T09:09:24;101118.44;;;1.50;76.80
74403;BME280;62837;51.082;13.744;2023-03-03T09:11:59;101122.48;;;1.54;76.69
74403;BME280;62837;51.082;13.744;2023-03-03T09:14:32;101130.66;;;1.59;76.52
74403;BME280;62837;51.082;13.744;2023-03-03T09:17:16;101125.17;;;1.58;76.17
74403;BME280;62837;51.082;13.744;2023-03-03T09:19:48;101126.38;;;1.60;76.07
74403;BME280;62837;51.082;13.744;2023-03-03T09:22:22;101124.70;;;1.62;76.02
74403;BME280;62837;51.082;13.744;2023-03-03T09:24:56;101129.02;;;1.59;75.72
74403;BME280;62837;51.082;13.744;2023-03-03T09:27:30;101136.60;;;1.61;75.98
74403;BME280;62837;51.082;13.744;2023-03-03T09:30:20;101136.90;;;1.63;75.75
74403;BME280;62837;51.082;13.744;2023-03-03T09:32:57;101141.42;;;1.66;75.56
74403;BME280;62837;51.082;13.744;2023-03-03T09:35:39;101140.58;;;1.64;75.74
74403;BME280;62837;51.082;13.744;2023-03-03T09:38:24;101145.53;;;1.66;75.58
74403;BME280;62837;51.082;13.744;2023-03-03T09:41:20;101146.33;;;1.69;75.34
74403;BME280;62837;51.082;13.744;2023-03-03T09:44:08;101155.39;;;1.67;75.24
74403;BME280;62837;51.082;13.744;2023-03-03T09:46:47;101155.26;;;1.67;75.35
74403;BME280;62837;51.082;13.744;2023-03-03T09:49:32;101158.32;;;1.65;75.36
74403;BME280;62837;51.082;13.744;2023-03-03T09:52:25;101159.84;;;1.65;75.32
74403;BME280;62837;51.082;13.744;2023-03-03T09:55:19;101160.20;;;1.66;75.14
74403;BME280;62837;51.082;13.744;2023-03-03T09:58:03;101166.61;;;1.67;75.10
74403;BME280;62837;51.082;13.744;2023-03-03T10:00:48;101159.33;;;1.63;74.81
74403;BME280;62837;51.082;13.744;2023-03-03T10:03:50;101160.52;;;1.55;74.98
74403;BME280;62837;51.082;13.744;2023-03-03T10:06:30;101154.02;;;1.53;74.95
74403;BME280;62837;51.082;13.744;2023-03-03T10:09:15;101157.10;;;1.50;75.05
74403;BME280;62837;51.082;13.744;2023-03-03T10:11:55;101162.39;;;1.44;75.19
74403;BME280;62837;51.082;13.744;2023-03-03T10:14:43;101164.98;;;1.44;75.36
74403;BME280;62837;51.082;13.744;2023-03-03T10:17:27;101171.46;;;1.49;75.40
74403;BME280;62837;51.082;13.744;2023-03-03T10:20:13;101175.14;;;1.55;75.10
74403;BME280;62837;51.082;13.744;2023-03-03T10:22:52;101174.77;;;1.55;74.72
74403;BME280;62837;51.082;13.744;2023-03-03T10:25:36;101172.90;;;1.51;74.78
74403;BME280;62837;51.082;13.744;2023-03-03T10:28:30;101170.66;;;1.53;74.68
74403;BME280;62837;51.082;13.744;2023-03-03T10:31:10;101166.63;;;1.58;74.81
74403;BME280;62837;51.082;13.744;2023-03-03T10:33:53;101161.43;;;1.59;74.62
74403;BME280;62837;51.082;13.744;2023-03-03T10:36:47;101167.05;;;1.63;75.30
74403;BME280;62837;51.082;13.744;2023-03-03T10:39:29;101162.17;;;1.66;75.72
74403;BME280;62837;51.082;13.744;2023-03-03T10:42:14;101175.10;;;1.76;75.12
74403;BME280;62837;51.082;13.744;2023-03-03T10:44:57;101172.75;;;1.82;75.03
74403;BME280;62837;51.082;13.744;2023-03-03T10:47:41;101172.41;;;1.85;74.31
74403;BME280;62837;51.082;13.744;2023-03-03T10:50:22;101170.98;;;1.89;77.26
74403;BME280;62837;51.082;13.744;2023-03-03T10:53:09;101171.81;;;2.58;85.02
74403;BME280;62837;51.082;13.744;2023-03-03T10:55:52;101168.73;;;3.00;79.83
74403;BME280;62837;51.082;13.744;2023-03-03T10:58:50;101168.53;;;3.04;76.76
74403;BME280;62837;51.082;13.744;2023-03-03T11:01:23;101168.59;;;2.95;75.15
74403;BME280;62837;51.082;13.744;2023-03-03T11:04:08;101166.02;;;2.77;74.71
74403;BME280;62837;51.082;13.744;2023-03-03T11:06:47;101171.34;;;2.62;74.57
74403;BME280;62837;51.082;13.744;2023-03-03T11:09:35;101170.09;;;2.50;74.74
74403;BME280;62837;51.082;13.744;2023-03-03T11:12:19;101170.95;;;2.41;74.69
74403;BME280;62837;51.082;13.744;2023-03-03T11:15:02;101169.74;;;2.32;75.03
74403;BME280;62837;51.082;13.744;2023-03-03T11:17:52;101171.09;;;2.20;74.36
74403;BME280;62837;51.082;13.744;2023-03-03T11:20:33;101167.16;;;2.08;74.81
74403;BME280;62837;51.082;13.744;2023-03-03T11:23:18;101163.52;;;2.00;75.41
74403;BME280;62837;51.082;13.744;2023-03-03T11:26:09;101166.59;;;1.98;74.98
74403;BME280;62837;51.082;13.744;2023-03-03T11:28:58;101163.90;;;1.97;74.77
74403;BME280;62837;51.082;13.744;2023-03-03T11:31:40;101157.91;;;1.93;74.66
74403;BME280;62837;51.082;13.744;2023-03-03T11:34:23;101154.75;;;1.89;74.56
74403;BME280;62837;51.082;13.744;2023-03-03T11:37:03;101155.58;;;1.81;75.00
74403;BME280;62837;51.082;13.744;2023-03-03T11:39:36;101146.62;;;1.81;75.11
74403;BME280;62837;51.082;13.744;2023-03-03T11:42:13;101149.70;;;1.81;74.72
74403;BME280;62837;51.082;13.744;2023-03-03T11:44:48;101150.19;;;1.79;75.11
74403;BME280;62837;51.082;13.744;2023-03-03T11:47:24;101150.73;;;1.80;75.35
74403;BME280;62837;51.082;13.744;2023-03-03T11:50:03;101157.33;;;1.86;75.24
74403;BME280;62837;51.082;13.744;2023-03-03T11:52:41;101150.32;;;1.91;75.11
74403;BME280;62837;51.082;13.744;2023-03-03T11:55:19;101148.05;;;1.88;74.98
74403;BME280;62837;51.082;13.744;2023-03-03T11:57:55;101146.70;;;1.88;75.07
74403;BME280;62837;51.082;13.744;2023-03-03T12:00:33;101143.77;;;1.87;74.81
74403;BME280;62837;51.082;13.744;2023-03-03T12:03:20;101143.30;;;1.82;74.98
74403;BME280;62837;51.082;13.744;2023-03-03T12:06:00;101140.54;;;1.87;74.97
74403;BME280;62837;51.082;13.744;2023-03-03T12:08:47;101141.55;;;1.86;74.37
74403;BME280;62837;51.082;13.744;2023-03-03T12:11:27;101140.23;;;1.85;74.68
74403;BME280;62837;51.082;13.744;2023-03-03T12:14:11;101139.90;;;1.86;74.65
74403;BME280;62837;51.082;13.744;2023-03-03T12:16:53;101137.67;;;1.78;74.50
74403;BME280;62837;51.082;13.744;2023-03-03T12:19:45;101135.36;;;1.71;74.78
74403;BME280;62837;51.082;13.744;2023-03-03T12:22:29;101134.70;;;1.69;74.83
74403;BME280;62837;51.082;13.744;2023-03-03T12:25:25;101127.20;;;1.69;74.76
74403;BME280;62837;51.082;13.744;2023-03-03T12:28:03;101129.23;;;1.68;74.87
74403;BME280;62837;51.082;13.744;2023-03-03T12:30:48;101125.39;;;1.71;74.67
74403;BME280;62837;51.082;13.744;2023-03-03T12:33:35;101125.97;;;1.76;74.57
74403;BME280;62837;51.082;13.744;2023-03-03T12:36:18;101124.80;;;1.78;74.26
74403;BME280;62837;51.082;13.744;2023-03-03T12:38:57;101120.02;;;1.79;74.09
74403;BME280;62837;51.082;13.744;2023-03-03T12:41:34;101120.71;;;1.80;74.55
74403;BME280;62837;51.082;13.744;2023-03-03T12:44:12;101113.56;;;1.83;74.51
74403;BME280;62837;51.082;13.744;2023-03-03T12:46:55;101112.37;;;1.87;74.53
74403;BME280;62837;51.082;13.744;2023-03-03T12:49:36;101110.66;;;1.92;74.55
74403;BME280;62837;51.082;13.744;2023-03-03T12:52:24;101106.40;;;1.94;74.24
74403;BME280;62837;51.082;13.744;2023-03-03T12:55:08;101101.27;;;1.92;74.00
74403;BME280;62837;51.082;13.744;2023-03-03T12:57:47;101100.63;;;1.91;73.44
74403;BME280;62837;51.082;13.744;2023-03-03T13:00:29;101098.33;;;1.91;73.82
74403;BME280;62837;51.082;13.744;2023-03-03T13:03:16;101102.91;;;1.90;73.77
74403;BME280;62837;51.082;13.744;2023-03-03T13:06:09;101097.27;;;1.92;73.86
74403;BME280;62837;51.082;13.744;2023-03-03T13:08:52;101098.48;;;1.94;74.05
74403;BME280;62837;51.082;13.744;2023-03-03T13:14:30;101099.65;;;1.95;73.91
74403;BME280;62837;51.082;13.744;2023-03-03T13:17:13;101101.77;;;1.93;74.23
74403;BME280;62837;51.082;13.744;2023-03-03T13:19:48;101100.74;;;1.96;73.94
74403;BME280;62837;51.082;13.744;2023-03-03T13:22:32;101104.39;;;1.94;74.21
74403;BME280;62837;51.082;13.744;2023-03-03T13:25:13;101099.69;;;1.88;74.65
74403;BME280;62837;51.082;13.744;2023-03-03T13:27:51;101099.45;;;1.86;74.54
74403;BME280;62837;51.082;13.744;2023-03-03T13:30:29;101096.35;;;1.83;74.58
74403;BME280;62837;51.082;13.744;2023-03-03T13:33:08;101090.11;;;1.82;74.62
74403;BME280;62837;51.082;13.744;2023-03-03T13:35:44;101088.08;;;1.75;74.67
74403;BME280;62837;51.082;13.744;2023-03-03T13:38:22;101086.42;;;1.71;74.66